sensor_id;sensor_type;location;lat;lon;timestamp;pressure;altitude;pressure_sealevel;temperature;humidity
69127;BME280;56688;50.234;19.292;2023-04-05T00:01:58;99085.92;;;-5.58;69.21
69127;BME280;56688;50.234;19.292;2023-04-05T00:04:26;99080.64;;;-5.60;69.49
69127;BME280;56688;50.234;19.292;2023-04-05T00:06:54;99081.52;;;-5.56;69.68
69127;BME280;56688;50.234;19.292;2023-04-05T00:09:23;99082.48;;;-5.55;69.61
69127;BME280;56688;50.234;19.292;2023-04-05T00:11:49;99083.94;;;-5.53;69.51
69127;BME280;56688;50.234;19.292;2023-04-05T00:14:16;99075.70;;;-5.55;69.04
69127;BME280;56688;50.234;19.292;2023-04-05T00:16:43;99076.19;;;-5.57;69.02
69127;BME280;56688;50.234;19.292;2023-04-05T00:19:10;99073.91;;;-5.61;69.07
69127;BME280;56688;50.234;19.292;2023-04-05T00:21:38;99069.63;;;-5.66;68.96
69127;BME280;56688;50.234;19.292;2023-04-05T00:24:06;99066.91;;;-5.70;68.97
69127;BME280;56688;50.234;19.292;2023-04-05T00:26:35;99066.39;;;-5.74;69.10
69127;BME280;56688;50.234;19.292;2023-04-05T00:29:02;99056.87;;;-5.78;69.37
69127;BME280;56688;50.234;19.292;2023-04-05T00:31:28;99056.77;;;-5.83;69.85
69127;BME280;56688;50.234;19.292;2023-04-05T00:33:56;99052.17;;;-5.85;70.28
69127;BME280;56688;50.234;19.292;2023-04-05T00:36:23;99050.73;;;-5.84;70.71
69127;BME280;56688;50.234;19.292;2023-04-05T00:38:50;99050.64;;;-5.82;71.01
69127;BME280;56688;50.234;19.292;2023-04-05T00:41:17;99051.43;;;-5.77;71.17
69127;BME280;56688;50.234;19.292;2023-04-05T00:43:44;99049.23;;;-5.74;71.35
69127;BME280;56688;50.234;19.292;2023-04-05T00:46:11;99048.63;;;-5.69;71.31
69127;BME280;56688;50.234;19.292;2023-04-05T00:48:38;99042.05;;;-5.66;71.15
69127;BME280;56688;50.234;19.292;2023-04-05T00:51:05;99046.35;;;-5.58;71.02
69127;BME280;56688;50.234;19.292;2023-04-05T00:53:35;99042.21;;;-5.51;70.71
69127;BME280;56688;50.234;19.292;2023-04-05T00:56:03;99036.95;;;-5.43;70.98
69127;BME280;56688;50.234;19.292;2023-04-05T00:58:30;99040.73;;;-5.32;70.43
69127;BME280;56688;50.234;19.292;2023-04-05T01:03:34;99041.70;;;-5.13;70.24
69127;BME280;56688;50.234;19.292;2023-04-05T01:11:39;99039.14;;;-5.10;68.43
69127;BME280;56688;50.234;19.292;2023-04-05T01:14:08;99042.33;;;-5.18;68.35
69127;BME280;56688;50.234;19.292;2023-04-05T01:16:35;99038.27;;;-5.24;68.46
69127;BME280;56688;50.234;19.292;2023-04-05T01:19:02;99034.77;;;-5.30;68.59
69127;BME280;56688;50.234;19.292;2023-04-05T01:21:48;99032.52;;;-5.34;68.93
69127;BME280;56688;50.234;19.292;2023-04-05T01:27:21;99034.91;;;-5.37;69.67
69127;BME280;56688;50.234;19.292;2023-04-05T01:32:39;99025.91;;;-5.38;70.55
69127;BME280;56688;50.234;19.292;2023-04-05T01:37:44;99023.46;;;-5.37;71.58
69127;BME280;56688;50.234;19.292;2023-04-05T01:40:18;99027.67;;;-5.35;71.44
69127;BME280;56688;50.234;19.292;2023-04-05T01:42:45;99027.30;;;-5.30;71.66
69127;BME280;56688;50.234;19.292;2023-04-05T01:45:12;99025.44;;;-5.24;71.98
69127;BME280;56688;50.234;19.292;2023-04-05T01:47:39;99023.90;;;-5.15;71.92
69127;BME280;56688;50.234;19.292;2023-04-05T01:50:07;99026.15;;;-5.04;71.96
69127;BME280;56688;50.234;19.292;2023-04-05T01:52:34;99030.10;;;-4.93;72.07
69127;BME280;56688;50.234;19.292;2023-04-05T01:55:01;99028.36;;;-4.80;71.98
69127;BME280;56688;50.234;19.292;2023-04-05T01:57:29;99028.84;;;-4.65;71.69
69127;BME280;56688;50.234;19.292;2023-04-05T01:59:56;99030.59;;;-4.49;71.54
69127;BME280;56688;50.234;19.292;2023-04-05T02:02:22;99024.19;;;-4.37;71.19
69127;BME280;56688;50.234;19.292;2023-04-05T02:04:49;99024.77;;;-4.25;70.94
69127;BME280;56688;50.234;19.292;2023-04-05T02:07:16;99015.97;;;-4.17;70.69
69127;BME280;56688;50.234;19.292;2023-04-05T02:09:43;99011.73;;;-4.12;70.30
69127;BME280;56688;50.234;19.292;2023-04-05T02:12:11;99008.48;;;-4.10;69.87
69127;BME280;56688;50.234;19.292;2023-04-05T02:14:38;99007.74;;;-4.09;69.60
69127;BME280;56688;50.234;19.292;2023-04-05T02:17:06;99002.48;;;-4.11;69.48
69127;BME280;56688;50.234;19.292;2023-04-05T02:19:32;98998.48;;;-4.15;69.65
69127;BME280;56688;50.234;19.292;2023-04-05T02:22:07;98998.45;;;-4.21;69.79
69127;BME280;56688;50.234;19.292;2023-04-05T02:24:34;98997.63;;;-4.28;69.95
69127;BME280;56688;50.234;19.292;2023-04-05T02:27:01;99001.98;;;-4.31;70.23
69127;BME280;56688;50.234;19.292;2023-04-05T02:29:28;99006.48;;;-4.34;70.66
69127;BME280;56688;50.234;19.292;2023-04-05T02:31:54;99009.52;;;-4.35;71.03
69127;BME280;56688;50.234;19.292;2023-04-05T02:34:21;99007.29;;;-4.36;71.00
69127;BME280;56688;50.234;19.292;2023-04-05T02:36:50;99005.60;;;-4.37;71.38
69127;BME280;56688;50.234;19.292;2023-04-05T02:39:17;98999.81;;;-4.36;71.53
69127;BME280;56688;50.234;19.292;2023-04-05T02:41:45;98995.83;;;-4.33;71.46
69127;BME280;56688;50.234;19.292;2023-04-05T02:44:12;98993.65;;;-4.29;71.62
69127;BME280;56688;50.234;19.292;2023-04-05T02:46:39;98996.07;;;-4.22;71.78
69127;BME280;56688;50.234;19.292;2023-04-05T02:49:06;98994.29;;;-4.14;71.91
69127;BME280;56688;50.234;19.292;2023-04-05T02:51:33;98990.95;;;-4.08;72.10
69127;BME280;56688;50.234;19.292;2023-04-05T02:54:05;98987.39;;;-4.00;72.03
69127;BME280;56688;50.234;19.292;2023-04-05T02:56:33;98980.85;;;-3.95;71.70
69127;BME280;56688;50.234;19.292;2023-04-05T02:59:01;98981.78;;;-3.94;71.85
69127;BME280;56688;50.234;19.292;2023-04-05T03:01:29;98989.54;;;-3.89;71.69
69127;BME280;56688;50.234;19.292;2023-04-05T03:03:59;98984.34;;;-3.86;71.96
69127;BME280;56688;50.234;19.292;2023-04-05T03:06:26;98979.77;;;-3.82;71.79
69127;BME280;56688;50.234;19.292;2023-04-05T03:08:53;98977.38;;;-3.80;71.90
69127;BME280;56688;50.234;19.292;2023-04-05T03:11:23;98976.34;;;-3.80;71.99
69127;BME280;56688;50.234;19.292;2023-04-05T03:13:53;98974.71;;;-3.79;71.85
69127;BME280;56688;50.234;19.292;2023-04-05T03:16:35;98973.86;;;-3.76;72.14
69127;BME280;56688;50.234;19.292;2023-04-05T03:19:10;98974.41;;;-3.71;71.96
69127;BME280;56688;50.234;19.292;2023-04-05T03:21:40;98975.08;;;-3.64;71.96
69127;BME280;56688;50.234;19.292;2023-04-05T03:24:20;98971.98;;;-3.55;72.16
69127;BME280;56688;50.234;19.292;2023-04-05T03:26:47;98970.02;;;-3.49;71.97
69127;BME280;56688;50.234;19.292;2023-04-05T03:29:16;98965.41;;;-3.44;71.87
69127;BME280;56688;50.234;19.292;2023-04-05T03:31:44;98966.80;;;-3.41;71.90
69127;BME280;56688;50.234;19.292;2023-04-05T03:34:13;98964.36;;;-3.39;71.87
69127;BME280;56688;50.234;19.292;2023-04-05T03:36:43;98966.77;;;-3.38;71.54
69127;BME280;56688;50.234;19.292;2023-04-05T03:39:21;98970.89;;;-3.40;71.61
69127;BME280;56688;50.234;19.292;2023-04-05T03:41:48;98972.16;;;-3.41;71.48
69127;BME280;56688;50.234;19.292;2023-04-05T03:44:15;98976.39;;;-3.42;71.33
69127;BME280;56688;50.234;19.292;2023-04-05T03:46:42;98977.88;;;-3.46;70.80
69127;BME280;56688;50.234;19.292;2023-04-05T03:49:12;98980.59;;;-3.51;70.94
69127;BME280;56688;50.234;19.292;2023-04-05T03:51:38;98977.84;;;-3.55;70.73
69127;BME280;56688;50.234;19.292;2023-04-05T03:54:05;98976.07;;;-3.57;70.84
69127;BME280;56688;50.234;19.292;2023-04-05T03:56:32;98979.45;;;-3.58;70.88
69127;BME280;56688;50.234;19.292;2023-04-05T03:59:08;98980.13;;;-3.61;70.30
69127;BME280;56688;50.234;19.292;2023-04-05T04:01:35;98979.01;;;-3.66;70.17
69127;BME280;56688;50.234;19.292;2023-04-05T04:04:03;98980.23;;;-3.78;70.40
69127;BME280;56688;50.234;19.292;2023-04-05T04:06:30;98977.70;;;-3.98;70.33
69127;BME280;56688;50.234;19.292;2023-04-05T04:08:57;98985.23;;;-4.11;71.03
69127;BME280;56688;50.234;19.292;2023-04-05T04:11:24;98986.46;;;-4.21;71.38
69127;BME280;56688;50.234;19.292;2023-04-05T04:13:51;98986.09;;;-4.30;71.72
69127;BME280;56688;50.234;19.292;2023-04-05T04:16:35;98985.45;;;-4.34;72.16
69127;BME280;56688;50.234;19.292;2023-04-05T04:19:20;98985.40;;;-4.33;72.68
69127;BME280;56688;50.234;19.292;2023-04-05T04:22:03;98983.08;;;-4.35;72.63
69127;BME280;56688;50.234;19.292;2023-04-05T04:24:44;98982.38;;;-4.35;72.92
69127;BME280;56688;50.234;19.292;2023-04-05T04:27:32;98975.95;;;-4.29;73.20
69127;BME280;56688;50.234;19.292;2023-04-05T04:30:15;98976.80;;;-4.23;73.23
69127;BME280;56688;50.234;19.292;2023-04-05T04:32:51;98981.02;;;-4.27;73.07
69127;BME280;56688;50.234;19.292;2023-04-05T04:35:34;98980.26;;;-4.32;73.23
69127;BME280;56688;50.234;19.292;2023-04-05T04:38:20;98980.20;;;-4.31;73.76
69127;BME280;56688;50.234;19.292;2023-04-05T04:41:06;98983.08;;;-4.23;73.95
69127;BME280;56688;50.234;19.292;2023-04-05T04:43:48;98985.21;;;-4.20;73.84
69127;BME280;56688;50.234;19.292;2023-04-05T04:46:22;98992.05;;;-4.22;74.20
69127;BME280;56688;50.234;19.292;2023-04-05T04:49:00;98985.79;;;-4.15;74.53
69127;BME280;56688;50.234;19.292;2023-04-05T04:51:32;98983.52;;;-4.08;74.57
69127;BME280;56688;50.234;19.292;2023-04-05T04:53:59;98980.53;;;-4.02;74.82
69127;BME280;56688;50.234;19.292;2023-04-05T04:56:26;98979.79;;;-3.95;74.78
69127;BME280;56688;50.234;19.292;2023-04-05T04:58:55;98979.71;;;-3.84;74.75
69127;BME280;56688;50.234;19.292;2023-04-05T05:01:22;98981.77;;;-3.72;75.07
69127;BME280;56688;50.234;19.292;2023-04-05T05:03:51;98985.30;;;-3.57;74.71
69127;BME280;56688;50.234;19.292;2023-04-05T05:06:29;98980.25;;;-3.39;74.79
69127;BME280;56688;50.234;19.292;2023-04-05T05:08:56;98976.20;;;-3.23;74.77
69127;BME280;56688;50.234;19.292;2023-04-05T05:11:24;98979.03;;;-3.03;74.55
69127;BME280;56688;50.234;19.292;2023-04-05T05:13:51;98978.17;;;-2.86;74.41
69127;BME280;56688;50.234;19.292;2023-04-05T05:16:23;98978.14;;;-2.69;74.16
69127;BME280;56688;50.234;19.292;2023-04-05T05:18:50;98977.91;;;-2.53;73.88
69127;BME280;56688;50.234;19.292;2023-04-05T05:21:18;98981.23;;;-2.39;73.23
69127;BME280;56688;50.234;19.292;2023-04-05T05:23:51;98986.48;;;-2.26;72.81
69127;BME280;56688;50.234;19.292;2023-04-05T05:26:18;98986.48;;;-2.20;71.82
69127;BME280;56688;50.234;19.292;2023-04-05T05:28:45;98986.70;;;-2.13;71.51
69127;BME280;56688;50.234;19.292;2023-04-05T05:31:14;98985.33;;;-2.08;71.22
69127;BME280;56688;50.234;19.292;2023-04-05T05:33:43;98988.79;;;-1.93;71.08
69127;BME280;56688;50.234;19.292;2023-04-05T05:36:14;98987.11;;;-1.76;70.51
69127;BME280;56688;50.234;19.292;2023-04-05T05:38:41;98987.60;;;-1.53;70.09
69127;BME280;56688;50.234;19.292;2023-04-05T05:41:09;98984.20;;;-1.34;69.18
69127;BME280;56688;50.234;19.292;2023-04-05T05:43:36;98990.17;;;-1.19;68.88
69127;BME280;56688;50.234;19.292;2023-04-05T05:46:03;98992.79;;;-1.03;68.34
69127;BME280;56688;50.234;19.292;2023-04-05T05:48:29;98989.86;;;-0.81;68.14
69127;BME280;56688;50.234;19.292;2023-04-05T05:50:56;98991.56;;;-0.54;67.56
69127;BME280;56688;50.234;19.292;2023-04-05T05:53:27;98988.42;;;-0.32;66.89
69127;BME280;56688;50.234;19.292;2023-04-05T05:55:54;98985.17;;;-0.13;66.38
69127;BME280;56688;50.234;19.292;2023-04-05T05:58:21;98984.75;;;0.02;65.90
69127;BME280;56688;50.234;19.292;2023-04-05T06:00:49;98982.89;;;0.16;65.48
69127;BME280;56688;50.234;19.292;2023-04-05T06:03:16;98981.84;;;0.28;63.04
69127;BME280;56688;50.234;19.292;2023-04-05T06:05:53;98981.92;;;0.39;60.73
69127;BME280;56688;50.234;19.292;2023-04-05T06:08:20;98983.17;;;0.48;59.96
69127;BME280;56688;50.234;19.292;2023-04-05T06:10:48;98978.73;;;0.56;58.96
69127;BME280;56688;50.234;19.292;2023-04-05T06:13:15;98977.53;;;0.63;58.97
69127;BME280;56688;50.234;19.292;2023-04-05T06:15:42;98979.26;;;0.68;58.66
69127;BME280;56688;50.234;19.292;2023-04-05T06:18:10;98980.88;;;0.74;57.92
69127;BME280;56688;50.234;19.292;2023-04-05T06:20:37;98979.82;;;0.76;57.96
69127;BME280;56688;50.234;19.292;2023-04-05T06:23:07;98978.75;;;0.74;57.83
69127;BME280;56688;50.234;19.292;2023-04-05T06:25:34;98981.90;;;0.77;57.67
69127;BME280;56688;50.234;19.292;2023-04-05T06:28:02;98981.09;;;0.83;57.91
69127;BME280;56688;50.234;19.292;2023-04-05T06:30:30;98981.79;;;0.86;57.26
69127;BME280;56688;50.234;19.292;2023-04-05T06:32:57;98982.77;;;0.91;57.08
69127;BME280;56688;50.234;19.292;2023-04-05T06:35:24;98986.21;;;0.94;56.63
69127;BME280;56688;50.234;19.292;2023-04-05T06:37:51;98983.31;;;1.00;55.98
69127;BME280;56688;50.234;19.292;2023-04-05T06:40:19;98988.96;;;1.16;56.24
69127;BME280;56688;50.234;19.292;2023-04-05T06:42:46;98987.89;;;1.34;56.11
69127;BME280;56688;50.234;19.292;2023-04-05T06:45:14;98994.39;;;1.48;55.01
69127;BME280;56688;50.234;19.292;2023-04-05T06:47:42;98991.95;;;1.59;54.52
69127;BME280;56688;50.234;19.292;2023-04-05T06:50:09;98987.77;;;1.74;53.44
69127;BME280;56688;50.234;19.292;2023-04-05T06:52:36;98989.02;;;1.91;53.61
69127;BME280;56688;50.234;19.292;2023-04-05T06:55:03;98985.10;;;2.10;53.63
69127;BME280;56688;50.234;19.292;2023-04-05T06:57:30;98982.67;;;2.20;52.92
69127;BME280;56688;50.234;19.292;2023-04-05T06:59:57;98985.06;;;2.34;52.06
69127;BME280;56688;50.234;19.292;2023-04-05T07:02:24;98982.64;;;2.63;51.76
69127;BME280;56688;50.234;19.292;2023-04-05T07:04:51;98986.80;;;3.04;52.36
69127;BME280;56688;50.234;19.292;2023-04-05T07:07:18;98987.08;;;3.26;51.04
69127;BME280;56688;50.234;19.292;2023-04-05T07:09:45;98984.69;;;3.38;50.00
69127;BME280;56688;50.234;19.292;2023-04-05T07:12:12;98981.72;;;3.43;49.81
69127;BME280;56688;50.234;19.292;2023-04-05T07:14:39;98982.30;;;3.43;49.56
69127;BME280;56688;50.234;19.292;2023-04-05T07:17:06;98982.20;;;3.38;49.37
69127;BME280;56688;50.234;19.292;2023-04-05T07:19:33;98985.06;;;3.35;49.31
69127;BME280;56688;50.234;19.292;2023-04-05T07:21:59;98987.92;;;3.34;49.66
69127;BME280;56688;50.234;19.292;2023-04-05T07:24:26;98988.55;;;3.35;50.09
69127;BME280;56688;50.234;19.292;2023-04-05T07:26:53;98992.80;;;3.25;50.52
69127;BME280;56688;50.234;19.292;2023-04-05T07:29:20;98990.38;;;3.16;50.37
69127;BME280;56688;50.234;19.292;2023-04-05T07:31:47;98994.85;;;3.20;50.12
69127;BME280;56688;50.234;19.292;2023-04-05T07:34:14;98990.85;;;3.44;49.79
69127;BME280;56688;50.234;19.292;2023-04-05T07:36:40;98985.08;;;3.98;49.10
69127;BME280;56688;50.234;19.292;2023-04-05T07:39:07;98983.39;;;4.64;46.99
69127;BME280;56688;50.234;19.292;2023-04-05T07:41:35;98981.87;;;5.32;46.17
69127;BME280;56688;50.234;19.292;2023-04-05T07:44:02;98975.98;;;6.13;44.76
69127;BME280;56688;50.234;19.292;2023-04-05T07:46:29;98970.35;;;6.88;43.39
69127;BME280;56688;50.234;19.292;2023-04-05T07:48:56;98972.75;;;7.55;41.73
69127;BME280;56688;50.234;19.292;2023-04-05T07:51:24;98964.45;;;8.14;39.63
69127;BME280;56688;50.234;19.292;2023-04-05T07:53:52;98962.11;;;8.76;38.46
69127;BME280;56688;50.234;19.292;2023-04-05T07:56:18;98961.32;;;9.34;37.45
69127;BME280;56688;50.234;19.292;2023-04-05T07:58:45;98958.23;;;9.87;37.26
69127;BME280;56688;50.234;19.292;2023-04-05T08:01:13;98957.23;;;10.63;35.47
69127;BME280;56688;50.234;19.292;2023-04-05T08:03:40;98958.27;;;11.16;34.67
69127;BME280;56688;50.234;19.292;2023-04-05T08:06:09;98957.44;;;11.74;33.08
69127;BME280;56688;50.234;19.292;2023-04-05T08:08:37;98951.55;;;12.26;31.67
69127;BME280;56688;50.234;19.292;2023-04-05T08:11:04;98957.94;;;12.13;31.45
69127;BME280;56688;50.234;19.292;2023-04-05T08:13:31;98959.98;;;11.72;31.91
69127;BME280;56688;50.234;19.292;2023-04-05T08:16:00;98955.44;;;11.80;32.10
69127;BME280;56688;50.234;19.292;2023-04-05T08:18:27;98954.20;;;12.04;31.74
69127;BME280;56688;50.234;19.292;2023-04-05T08:20:55;98953.20;;;11.96;32.01
69127;BME280;56688;50.234;19.292;2023-04-05T08:23:22;98952.23;;;11.92;33.11
69127;BME280;56688;50.234;19.292;2023-04-05T08:25:49;98941.67;;;12.43;31.55
69127;BME280;56688;50.234;19.292;2023-04-05T08:28:17;98938.84;;;13.26;31.37
69127;BME280;56688;50.234;19.292;2023-04-05T08:30:44;98936.14;;;13.91;30.54
69127;BME280;56688;50.234;19.292;2023-04-05T08:33:12;98936.11;;;13.94;28.96
69127;BME280;56688;50.234;19.292;2023-04-05T08:35:39;98939.48;;;13.42;29.47
69127;BME280;56688;50.234;19.292;2023-04-05T08:38:08;98938.02;;;13.08;29.98
69127;BME280;56688;50.234;19.292;2023-04-05T08:40:39;98941.33;;;12.60;30.22
69127;BME280;56688;50.234;19.292;2023-04-05T08:43:12;98943.72;;;12.06;31.32
69127;BME280;56688;50.234;19.292;2023-04-05T08:45:46;98950.12;;;11.53;31.89
69127;BME280;56688;50.234;19.292;2023-04-05T08:48:13;98947.55;;;11.07;32.27
69127;BME280;56688;50.234;19.292;2023-04-05T08:50:41;98941.77;;;10.67;33.08
69127;BME280;56688;50.234;19.292;2023-04-05T08:53:08;98939.95;;;10.66;34.16
69127;BME280;56688;50.234;19.292;2023-04-05T08:55:36;98936.84;;;11.27;33.29
69127;BME280;56688;50.234;19.292;2023-04-05T08:58:11;98930.55;;;11.88;31.83
69127;BME280;56688;50.234;19.292;2023-04-05T09:00:39;98921.19;;;12.32;30.57
69127;BME280;56688;50.234;19.292;2023-04-05T09:03:12;98925.50;;;12.65;28.71
69127;BME280;56688;50.234;19.292;2023-04-05T09:05:44;98926.86;;;12.77;28.25
69127;BME280;56688;50.234;19.292;2023-04-05T09:08:12;98925.77;;;12.36;28.09
69127;BME280;56688;50.234;19.292;2023-04-05T09:10:40;98930.06;;;11.79;28.40
69127;BME280;56688;50.234;19.292;2023-04-05T09:13:07;98930.20;;;11.47;29.39
69127;BME280;56688;50.234;19.292;2023-04-05T09:15:36;98933.40;;;11.28;29.90
69127;BME280;56688;50.234;19.292;2023-04-05T09:18:03;98934.80;;;11.25;30.18
69127;BME280;56688;50.234;19.292;2023-04-05T09:20:44;98936.23;;;11.49;30.47
69127;BME280;56688;50.234;19.292;2023-04-05T09:23:12;98928.90;;;11.80;29.23
69127;BME280;56688;50.234;19.292;2023-04-05T09:25:40;98920.73;;;12.23;28.56
69127;BME280;56688;50.234;19.292;2023-04-05T09:28:08;98919.23;;;12.66;27.42
69127;BME280;56688;50.234;19.292;2023-04-05T09:30:35;98913.96;;;12.88;27.61
69127;BME280;56688;50.234;19.292;2023-04-05T09:33:07;98919.10;;;12.78;27.72
69127;BME280;56688;50.234;19.292;2023-04-05T09:35:35;98914.73;;;12.90;28.08
69127;BME280;56688;50.234;19.292;2023-04-05T09:38:03;98909.68;;;13.09;27.50
69127;BME280;56688;50.234;19.292;2023-04-05T09:40:48;98906.36;;;12.90;26.71
69127;BME280;56688;50.234;19.292;2023-04-05T09:43:38;98909.90;;;12.56;27.11
69127;BME280;56688;50.234;19.292;2023-04-05T09:46:15;98909.54;;;12.29;26.89
69127;BME280;56688;50.234;19.292;2023-04-05T09:48:52;98919.08;;;11.99;27.56
69127;BME280;56688;50.234;19.292;2023-04-05T09:51:19;98916.59;;;11.74;27.82
69127;BME280;56688;50.234;19.292;2023-04-05T09:54:02;98916.63;;;11.45;27.91
69127;BME280;56688;50.234;19.292;2023-04-05T09:56:33;98919.79;;;11.03;27.90
69127;BME280;56688;50.234;19.292;2023-04-05T09:59:02;98911.34;;;10.58;27.25
69127;BME280;56688;50.234;19.292;2023-04-05T10:01:32;98907.61;;;10.28;26.85
69127;BME280;56688;50.234;19.292;2023-04-05T10:03:59;98907.23;;;9.89;27.86
69127;BME280;56688;50.234;19.292;2023-04-05T10:06:37;98904.45;;;9.40;28.77
69127;BME280;56688;50.234;19.292;2023-04-05T10:09:05;98905.11;;;9.28;29.82
69127;BME280;56688;50.234;19.292;2023-04-05T10:11:33;98897.29;;;9.47;28.90
69127;BME280;56688;50.234;19.292;2023-04-05T10:14:04;98897.70;;;9.78;28.73
69127;BME280;56688;50.234;19.292;2023-04-05T10:16:35;98899.30;;;9.86;27.25
69127;BME280;56688;50.234;19.292;2023-04-05T10:19:04;98904.44;;;9.88;29.38
69127;BME280;56688;50.234;19.292;2023-04-05T10:21:37;98897.87;;;10.00;29.74
69127;BME280;56688;50.234;19.292;2023-04-05T10:29:16;98891.70;;;10.52;29.95
69127;BME280;56688;50.234;19.292;2023-04-05T10:31:58;98893.12;;;10.69;30.07
69127;BME280;56688;50.234;19.292;2023-04-05T10:37:02;98892.17;;;11.04;28.37
69127;BME280;56688;50.234;19.292;2023-04-05T10:39:41;98888.16;;;11.07;27.95
69127;BME280;56688;50.234;19.292;2023-04-05T10:42:19;98883.95;;;11.25;28.36
69127;BME280;56688;50.234;19.292;2023-04-05T10:44:50;98879.20;;;11.54;27.99
69127;BME280;56688;50.234;19.292;2023-04-05T10:47:18;98873.24;;;11.71;26.58
69127;BME280;56688;50.234;19.292;2023-04-05T10:49:48;98871.29;;;11.72;27.10
69127;BME280;56688;50.234;19.292;2023-04-05T10:52:19;98876.38;;;11.61;26.40
69127;BME280;56688;50.234;19.292;2023-04-05T10:54:51;98875.89;;;11.46;27.84
69127;BME280;56688;50.234;19.292;2023-04-05T10:57:19;98873.94;;;11.28;27.43
69127;BME280;56688;50.234;19.292;2023-04-05T10:59:47;98877.95;;;11.12;27.52
69127;BME280;56688;50.234;19.292;2023-04-05T11:02:15;98874.44;;;10.99;28.12
69127;BME280;56688;50.234;19.292;2023-04-05T11:04:43;98879.70;;;10.91;27.74
69127;BME280;56688;50.234;19.292;2023-04-05T11:07:14;98879.89;;;11.00;28.08
69127;BME280;56688;50.234;19.292;2023-04-05T11:10:00;98879.09;;;11.28;27.37
69127;BME280;56688;50.234;19.292;2023-04-05T11:18:04;98861.85;;;11.96;26.70
69127;BME280;56688;50.234;19.292;2023-04-05T11:20:41;98862.55;;;12.26;26.17
69127;BME280;56688;50.234;19.292;2023-04-05T11:23:10;98860.96;;;12.26;25.36
69127;BME280;56688;50.234;19.292;2023-04-05T11:25:38;98857.79;;;12.11;25.32
69127;BME280;56688;50.234;19.292;2023-04-05T11:28:06;98858.61;;;12.05;25.23
69127;BME280;56688;50.234;19.292;2023-04-05T11:33:35;98861.31;;;12.00;25.27
69127;BME280;56688;50.234;19.292;2023-04-05T11:36:02;98857.91;;;12.11;24.13
69127;BME280;56688;50.234;19.292;2023-04-05T11:38:29;98856.65;;;11.94;24.72
69127;BME280;56688;50.234;19.292;2023-04-05T11:41:05;98857.23;;;11.82;25.46
69127;BME280;56688;50.234;19.292;2023-04-05T11:43:32;98863.23;;;11.63;26.41
69127;BME280;56688;50.234;19.292;2023-04-05T11:46:01;98865.63;;;11.47;26.97
69127;BME280;56688;50.234;19.292;2023-04-05T11:48:30;98862.52;;;11.42;27.14
69127;BME280;56688;50.234;19.292;2023-04-05T11:50:57;98859.63;;;11.77;27.21
69127;BME280;56688;50.234;19.292;2023-04-05T11:53:23;98853.39;;;12.50;27.05
69127;BME280;56688;50.234;19.292;2023-04-05T11:55:50;98850.73;;;13.31;25.57
69127;BME280;56688;50.234;19.292;2023-04-05T11:58:19;98850.80;;;14.03;24.34
69127;BME280;56688;50.234;19.292;2023-04-05T12:00:57;98855.19;;;14.33;23.79
69127;BME280;56688;50.234;19.292;2023-04-05T12:03:25;98854.11;;;14.38;23.24
69127;BME280;56688;50.234;19.292;2023-04-05T12:05:56;98855.01;;;14.58;23.16
69127;BME280;56688;50.234;19.292;2023-04-05T12:08:37;98855.59;;;14.60;23.07
69127;BME280;56688;50.234;19.292;2023-04-05T12:11:06;98852.58;;;14.33;22.46
69127;BME280;56688;50.234;19.292;2023-04-05T12:13:35;98849.05;;;14.01;22.79
69127;BME280;56688;50.234;19.292;2023-04-05T12:16:04;98848.27;;;13.57;23.62
69127;BME280;56688;50.234;19.292;2023-04-05T12:18:34;98846.08;;;13.43;23.77
69127;BME280;56688;50.234;19.292;2023-04-05T12:21:03;98837.48;;;13.83;23.90
69127;BME280;56688;50.234;19.292;2023-04-05T12:23:33;98833.98;;;14.42;23.96
69127;BME280;56688;50.234;19.292;2023-04-05T12:26:00;98837.76;;;15.24;22.50
69127;BME280;56688;50.234;19.292;2023-04-05T12:31:34;98835.84;;;15.33;21.20
69127;BME280;56688;50.234;19.292;2023-04-05T12:34:02;98840.95;;;14.96;21.44
69127;BME280;56688;50.234;19.292;2023-04-05T12:36:29;98840.13;;;14.64;21.70
69127;BME280;56688;50.234;19.292;2023-04-05T12:38:58;98838.89;;;14.29;21.71
69127;BME280;56688;50.234;19.292;2023-04-05T12:41:27;98836.50;;;13.88;22.03
69127;BME280;56688;50.234;19.292;2023-04-05T12:43:56;98835.14;;;13.43;22.18
69127;BME280;56688;50.234;19.292;2023-04-05T12:46:44;98837.83;;;13.42;23.25
69127;BME280;56688;50.234;19.292;2023-04-05T12:51:42;98828.45;;;14.05;23.56
69127;BME280;56688;50.234;19.292;2023-04-05T12:54:11;98825.25;;;14.81;22.95
69127;BME280;56688;50.234;19.292;2023-04-05T12:56:40;98815.05;;;15.64;22.25
69127;BME280;56688;50.234;19.292;2023-04-05T12:59:07;98808.95;;;16.33;21.18
69127;BME280;56688;50.234;19.292;2023-04-05T13:01:34;98810.31;;;16.98;20.35
69127;BME280;56688;50.234;19.292;2023-04-05T13:04:02;98808.16;;;17.57;20.40
69127;BME280;56688;50.234;19.292;2023-04-05T13:06:44;98803.64;;;17.96;19.56
69127;BME280;56688;50.234;19.292;2023-04-05T13:09:14;98804.80;;;18.32;18.70
69127;BME280;56688;50.234;19.292;2023-04-05T13:11:41;98807.87;;;18.57;19.31
69127;BME280;56688;50.234;19.292;2023-04-05T13:14:08;98807.58;;;18.98;18.74
69127;BME280;56688;50.234;19.292;2023-04-05T13:16:35;98808.86;;;19.47;18.24
69127;BME280;56688;50.234;19.292;2023-04-05T13:19:02;98810.56;;;19.75;18.38
69127;BME280;56688;50.234;19.292;2023-04-05T13:21:29;98813.83;;;19.95;17.69
69127;BME280;56688;50.234;19.292;2023-04-05T13:23:56;98815.11;;;19.77;17.42
69127;BME280;56688;50.234;19.292;2023-04-05T13:26:23;98816.59;;;19.19;17.47
69127;BME280;56688;50.234;19.292;2023-04-05T13:28:50;98815.36;;;18.85;17.83
69127;BME280;56688;50.234;19.292;2023-04-05T13:31:16;98811.39;;;18.47;18.33
69127;BME280;56688;50.234;19.292;2023-04-05T13:33:43;98809.80;;;17.91;18.45
69127;BME280;56688;50.234;19.292;2023-04-05T13:36:10;98817.54;;;17.15;18.70
69127;BME280;56688;50.234;19.292;2023-04-05T13:38:38;98815.17;;;16.44;19.10
69127;BME280;56688;50.234;19.292;2023-04-05T13:41:05;98816.63;;;15.87;19.94
69127;BME280;56688;50.234;19.292;2023-04-05T13:43:32;98818.80;;;15.23;20.55